createdAt,value
2022-09-02T00:01:51.502Z,101431.56
2022-09-02T00:04:23.325Z,101431.31
2022-09-02T00:06:55.066Z,101432.47
2022-09-02T00:09:26.309Z,101433.72
2022-09-02T00:11:56.099Z,101436.25
2022-09-02T00:14:27.644Z,101435.22
2022-09-02T00:16:56.211Z,101415.34
2022-09-02T00:19:26.788Z,101420.41
2022-09-02T00:21:58.594Z,101386.28
2022-09-02T00:24:27.456Z,101387.78
2022-09-02T00:26:59.108Z,101409.47
2022-09-02T00:29:28.669Z,101420.88
2022-09-02T00:31:57.174Z,101371.59
2022-09-02T00:34:28.625Z,101422.69
2022-09-02T00:36:59.145Z,101362.13
2022-09-02T00:39:27.628Z,101418.53
2022-09-02T00:41:56.206Z,101414.28
2022-09-02T00:44:24.371Z,101419.63
2022-09-02T00:46:52.463Z,101409.31
2022-09-02T00:49:28.368Z,101416.84
2022-09-02T00:52:07.318Z,101419.81
2022-09-02T00:54:41.090Z,101420.56
2022-09-02T00:57:16.064Z,101407.81
2022-09-02T00:59:54.379Z,101375.00
2022-09-02T01:02:25.467Z,101399.06
2022-09-02T01:13:28.579Z,101412.63
2022-09-02T01:16:02.417Z,101413.09
2022-09-02T01:18:32.408Z,101404.91
2022-09-02T01:21:02.410Z,101406.25
2022-09-02T01:23:34.818Z,101411.00
2022-09-02T01:26:05.008Z,101390.53
2022-09-02T01:28:34.940Z,101404.91
2022-09-02T01:31:04.083Z,101376.13
2022-09-02T01:33:32.269Z,101400.19
2022-09-02T01:36:02.222Z,101400.94
2022-09-02T01:38:36.418Z,101402.28
2022-09-02T01:41:04.448Z,101401.88
2022-09-02T01:43:35.186Z,101390.13
2022-09-02T01:46:04.373Z,101362.13
2022-09-02T01:48:34.100Z,101395.00
2022-09-02T01:51:05.177Z,101392.69
2022-09-02T01:53:35.245Z,101388.06
2022-09-02T01:56:04.324Z,101383.00
2022-09-02T01:58:36.357Z,101383.78
2022-09-02T02:01:05.289Z,101243.34
2022-09-02T02:03:34.189Z,101384.63
2022-09-02T02:06:03.216Z,101370.22
2022-09-02T02:08:34.159Z,101371.00
2022-09-02T02:11:03.803Z,101358.69
2022-09-02T02:13:33.375Z,101373.97
2022-09-02T02:16:01.604Z,101368.63
2022-09-02T02:18:31.363Z,101372.63
2022-09-02T02:21:03.680Z,101369.41
2022-09-02T02:23:35.003Z,101363.16
2022-09-02T02:26:05.869Z,101345.66
2022-09-02T02:28:37.413Z,101309.13
2022-09-02T02:31:07.784Z,101383.84
2022-09-02T02:33:38.977Z,101333.38
2022-09-02T02:36:10.631Z,101341.94
2022-09-02T02:38:40.125Z,101364.25
2022-09-02T02:41:10.881Z,101226.00
2022-09-02T02:43:42.267Z,101364.53
2022-09-02T02:46:13.632Z,101220.38
2022-09-02T02:48:44.091Z,101277.81
2022-09-02T02:51:15.229Z,101241.81
2022-09-02T02:53:48.424Z,101371.75
2022-09-02T02:56:21.532Z,101359.69
2022-09-02T02:58:51.786Z,101321.19
2022-09-02T03:01:21.641Z,101354.38
2022-09-02T03:03:52.550Z,101357.03
2022-09-02T03:06:24.836Z,101352.56
2022-09-02T03:08:55.298Z,101354.81
2022-09-02T03:11:28.396Z,101297.16
2022-09-02T03:13:57.743Z,101354.38
2022-09-02T03:16:27.377Z,101336.56
2022-09-02T03:18:56.629Z,101349.94
2022-09-02T03:21:24.906Z,101323.31
2022-09-02T03:23:54.261Z,101241.34
2022-09-02T03:26:27.423Z,101323.63
2022-09-02T03:28:57.653Z,101333.28
2022-09-02T03:31:28.601Z,101332.50
2022-09-02T03:33:57.946Z,101305.78
2022-09-02T03:36:31.566Z,101336.81
2022-09-02T03:39:03.686Z,101339.81
2022-09-02T03:41:36.944Z,101338.78
2022-09-02T03:44:06.634Z,101335.34
2022-09-02T03:46:36.809Z,101333.72
2022-09-02T03:49:06.728Z,101328.97
2022-09-02T03:51:35.020Z,101309.78
2022-09-02T03:54:07.505Z,101337.16
2022-09-02T03:56:38.892Z,101331.19
2022-09-02T03:59:10.193Z,101341.00
2022-09-02T04:01:39.724Z,101283.25
2022-09-02T04:04:12.669Z,101240.16
2022-09-02T04:06:41.983Z,101338.31
2022-09-02T04:09:10.603Z,101318.13
2022-09-02T04:11:43.655Z,101315.00
2022-09-02T04:14:13.848Z,101343.69
2022-09-02T04:16:42.566Z,101342.78
2022-09-02T04:19:11.316Z,101310.72
2022-09-02T04:21:42.609Z,101281.59
2022-09-02T04:24:12.798Z,101351.25
2022-09-02T04:26:46.827Z,101342.94
2022-09-02T04:29:20.855Z,101345.47
2022-09-02T04:31:52.914Z,101343.09
2022-09-02T04:34:59.522Z,101342.03
2022-09-02T04:37:33.275Z,101348.13
2022-09-02T04:40:11.338Z,101338.91
2022-09-02T04:42:41.449Z,101348.75
2022-09-02T04:45:11.746Z,101345.75
2022-09-02T04:47:41.388Z,101337.47
2022-09-02T04:50:10.777Z,101340.72
2022-09-02T04:52:39.605Z,101340.13
2022-09-02T04:55:08.119Z,101341.03
2022-09-02T04:57:37.494Z,101337.88
2022-09-02T05:00:14.778Z,101343.38
2022-09-02T05:02:43.257Z,101346.34
2022-09-02T05:05:18.405Z,101343.97
2022-09-02T05:07:47.201Z,101345.03
2022-09-02T05:10:15.941Z,101346.66
2022-09-02T05:12:47.198Z,101343.38
2022-09-02T05:15:16.733Z,101341.16
2022-09-02T05:17:52.303Z,101346.34
2022-09-02T05:20:20.699Z,101346.66
2022-09-02T05:22:50.655Z,101337.88
2022-09-02T05:25:21.642Z,101342.50
2022-09-02T05:27:53.638Z,101327.63
2022-09-02T05:30:23.174Z,101335.66
2022-09-02T05:32:51.571Z,101341.59
2022-09-02T05:35:19.639Z,101332.84
2022-09-02T05:37:48.093Z,101335.03
2022-09-02T05:40:16.264Z,101323.09
2022-09-02T05:42:51.315Z,101319.81
2022-09-02T05:45:20.330Z,101318.50
2022-09-02T05:47:50.417Z,101320.78
2022-09-02T05:50:24.744Z,101319.25
2022-09-02T05:52:55.818Z,101320.75
2022-09-02T05:55:24.658Z,101323.66
2022-09-02T05:57:55.129Z,101285.16
2022-09-02T06:00:23.964Z,101322.09
2022-09-02T06:03:01.040Z,101322.47
2022-09-02T06:05:34.231Z,101325.41
2022-09-02T06:08:09.495Z,101324.44
2022-09-02T06:10:42.708Z,101321.09
2022-09-02T06:13:13.047Z,101325.41
2022-09-02T06:15:45.276Z,101315.31
2022-09-02T06:18:19.671Z,101321.63
2022-09-02T06:20:51.732Z,101327.97
2022-09-02T06:23:29.015Z,101301.81
2022-09-02T06:26:01.029Z,101299.94
2022-09-02T06:28:30.385Z,101329.66
2022-09-02T06:31:00.015Z,101334.91
2022-09-02T06:33:29.526Z,101334.94
2022-09-02T06:35:57.740Z,101322.16
2022-09-02T06:38:26.526Z,101323.28
2022-09-02T06:40:56.390Z,101326.38
2022-09-02T06:43:37.673Z,101323.38
2022-09-02T06:46:27.641Z,101325.13
2022-09-02T06:49:00.189Z,101329.84
2022-09-02T06:51:31.708Z,101332.00
2022-09-02T06:54:02.351Z,101331.97
2022-09-02T06:56:34.768Z,101331.22
2022-09-02T06:59:03.825Z,101327.41
2022-09-02T07:01:44.236Z,101326.56
2022-09-02T07:04:41.169Z,101328.72
2022-09-02T07:07:13.463Z,101328.84
2022-09-02T07:09:53.579Z,101328.88
2022-09-02T07:12:23.384Z,101306.75
2022-09-02T07:15:02.191Z,101316.16
2022-09-02T07:17:35.555Z,101320.75
2022-09-02T07:20:08.542Z,101320.63
2022-09-02T07:22:46.781Z,101314.41
2022-09-02T07:25:18.507Z,101317.84
2022-09-02T07:27:48.338Z,101313.03
2022-09-02T07:30:16.592Z,101317.84
2022-09-02T07:32:46.594Z,101289.53
2022-09-02T07:35:19.402Z,101294.38
2022-09-02T07:37:55.685Z,101320.13
2022-09-02T07:40:30.200Z,101319.38
2022-09-02T07:42:59.275Z,101313.66
2022-09-02T07:45:29.263Z,101315.94
2022-09-02T07:47:58.106Z,101314.41
2022-09-02T07:50:32.176Z,101309.38
2022-09-02T07:53:13.980Z,101314.06
2022-09-02T07:55:42.703Z,101313.25
2022-09-02T07:58:12.206Z,101305.25
2022-09-02T08:00:44.845Z,101320.19
2022-09-02T08:03:19.445Z,101318.63
2022-09-02T08:05:54.641Z,101316.94
2022-09-02T08:08:26.291Z,101314.03
2022-09-02T08:10:55.892Z,101263.00
2022-09-02T08:13:27.069Z,101304.56
2022-09-02T08:15:56.043Z,101309.47
2022-09-02T08:18:25.116Z,101303.13
2022-09-02T08:20:57.690Z,101311.78
2022-09-02T08:23:44.152Z,101301.59
2022-09-02T08:26:19.131Z,101301.75
2022-09-02T08:28:51.076Z,101303.88
2022-09-02T08:31:21.767Z,101307.59
2022-09-02T08:33:49.917Z,101304.09
2022-09-02T08:36:22.480Z,101304.09
2022-09-02T08:38:51.181Z,101304.03
2022-09-02T08:41:24.278Z,101304.84
2022-09-02T08:43:56.316Z,101301.53
2022-09-02T08:46:30.051Z,101303.09
2022-09-02T08:49:01.114Z,101294.50
2022-09-02T08:51:42.286Z,101300.50
2022-09-02T08:54:18.417Z,101290.59
2022-09-02T08:56:48.754Z,101292.06
2022-09-02T08:59:28.524Z,101298.81
2022-09-02T09:02:06.053Z,101284.50
2022-09-02T09:04:59.388Z,101277.84
2022-09-02T09:07:45.811Z,101283.69
2022-09-02T09:10:21.098Z,101271.34
2022-09-02T09:13:02.551Z,101270.44
2022-09-02T09:15:49.373Z,101282.88
2022-09-02T09:18:20.396Z,101271.41
2022-09-02T09:20:49.560Z,101256.59
2022-09-02T09:23:28.878Z,101254.09
2022-09-02T09:26:08.989Z,101250.13
2022-09-02T09:28:44.834Z,101246.88
2022-09-02T09:31:20.971Z,101245.91
2022-09-02T09:34:08.228Z,101247.22
2022-09-02T09:36:53.701Z,101248.50
2022-09-02T09:39:26.202Z,101245.09
2022-09-02T09:41:56.484Z,101240.09
2022-09-02T09:44:44.662Z,101232.13
2022-09-02T09:47:19.797Z,101221.22
2022-09-02T09:50:15.966Z,101226.09
2022-09-02T09:52:51.414Z,101232.91
2022-09-02T09:55:25.209Z,101217.84
2022-09-02T09:57:54.746Z,101208.19
2022-09-02T10:00:28.048Z,101211.69
2022-09-02T10:03:01.818Z,101206.50
2022-09-02T10:05:36.923Z,101211.03
2022-09-02T10:08:10.142Z,101212.94
2022-09-02T10:10:57.557Z,101199.69
2022-09-02T10:13:29.805Z,101215.72
2022-09-02T10:16:44.047Z,101216.09
2022-09-02T10:19:25.435Z,101207.22
2022-09-02T10:22:19.880Z,101208.50
2022-09-02T10:25:07.764Z,101206.19
2022-09-02T10:27:47.427Z,101203.75
2022-09-02T10:30:21.851Z,101195.72
2022-09-02T10:33:17.710Z,101196.66
2022-09-02T10:35:48.692Z,101193.13
2022-09-02T10:38:42.290Z,101172.47
2022-09-02T10:41:32.689Z,101170.94
2022-09-02T10:44:30.396Z,101182.13
2022-09-02T10:47:02.387Z,101182.03
2022-09-02T10:49:57.868Z,101173.63
2022-09-02T10:53:05.952Z,101172.13
2022-09-02T10:55:58.638Z,101169.31
2022-09-02T10:58:40.178Z,101156.94
2022-09-02T11:01:17.165Z,101156.34
2022-09-02T11:03:52.037Z,101162.16
2022-09-02T11:06:35.345Z,101158.84
2022-09-02T11:09:16.608Z,101142.94
2022-09-02T11:12:03.866Z,101147.63
2022-09-02T11:14:37.235Z,101148.75
2022-09-02T11:17:12.945Z,101140.66
2022-09-02T11:19:49.118Z,101143.47
2022-09-02T11:22:27.604Z,101140.00
2022-09-02T11:25:01.830Z,101129.50
2022-09-02T11:27:42.478Z,101130.09
2022-09-02T11:30:21.008Z,101127.19
2022-09-02T11:35:54.856Z,101130.97
2022-09-02T11:38:37.293Z,101125.19
2022-09-02T11:41:37.669Z,101129.75
2022-09-02T11:44:40.752Z,101128.63
2022-09-02T11:47:29.314Z,101126.84
2022-09-02T11:50:35.782Z,101119.56
2022-09-02T11:53:25.193Z,101110.00
2022-09-02T11:56:04.562Z,101110.56
2022-09-02T11:58:41.908Z,101123.06
2022-09-02T12:01:32.421Z,101126.63
2022-09-02T12:07:33.864Z,101126.53
2022-09-02T12:10:02.826Z,101113.44
2022-09-02T12:13:08.282Z,101108.09
2022-09-02T12:15:37.069Z,101103.66
2022-09-02T12:18:14.576Z,101107.69
2022-09-02T12:21:15.980Z,101096.22
2022-09-02T12:24:22.281Z,101092.00
2022-09-02T12:27:10.057Z,101086.13
2022-09-02T12:29:40.341Z,101064.13
2022-09-02T12:32:10.428Z,101084.41
2022-09-02T12:34:57.029Z,101087.16
2022-09-02T12:38:16.750Z,101078.44
2022-09-02T12:41:03.996Z,101080.09
2022-09-02T12:43:38.497Z,101077.34
2022-09-02T12:46:18.641Z,101074.47
2022-09-02T12:49:05.720Z,101077.53
2022-09-02T12:51:54.968Z,101068.19
2022-09-02T12:54:29.029Z,101063.63
2022-09-02T12:56:56.994Z,101064.13
2022-09-02T12:59:30.836Z,101061.69
2022-09-02T13:02:30.361Z,101057.13
2022-09-02T13:05:15.948Z,101062.88
2022-09-02T13:08:44.742Z,101051.72
2022-09-02T13:11:57.968Z,101050.16
2022-09-02T13:15:02.165Z,101040.22
2022-09-02T13:17:48.032Z,101049.97
2022-09-02T13:20:42.389Z,101041.47
2022-09-02T13:24:02.156Z,101049.56
2022-09-02T13:26:58.754Z,101042.84
2022-09-02T13:30:19.463Z,101038.44
2022-09-02T13:32:59.500Z,101044.22
2022-09-02T13:35:29.864Z,101023.50
2022-09-02T13:38:00.650Z,101025.31
2022-09-02T13:40:33.545Z,101028.50
2022-09-02T13:43:17.137Z,101017.34
2022-09-02T13:45:46.586Z,101016.94
2022-09-02T13:48:19.081Z,101005.91
2022-09-02T13:50:49.199Z,101004.88
2022-09-02T13:53:54.003Z,101014.69
2022-09-02T13:56:17.610Z,101008.34
2022-09-02T13:58:49.019Z,101008.59
2022-09-02T14:01:27.957Z,101001.22
2022-09-02T14:03:58.926Z,101003.47
2022-09-02T14:06:29.780Z,100996.06
2022-09-02T14:09:00.731Z,100997.38
2022-09-02T14:11:34.633Z,100992.00
2022-09-02T14:14:02.877Z,100998.91
2022-09-02T14:16:34.260Z,100986.88
2022-09-02T14:19:11.715Z,100995.88
2022-09-02T14:21:47.141Z,100985.06
2022-09-02T14:24:17.655Z,100985.50
2022-09-02T14:26:48.506Z,100988.59
2022-09-02T14:29:18.768Z,100980.22
2022-09-02T14:31:47.718Z,100978.81
2022-09-02T14:34:53.363Z,100996.78
2022-09-02T14:37:24.097Z,100989.88
2022-09-02T14:40:11.757Z,100989.03
2022-09-02T14:42:56.603Z,100981.53
2022-09-02T14:45:35.929Z,100978.31
2022-09-02T14:48:21.105Z,100978.63
2022-09-02T14:50:49.587Z,100973.72
2022-09-02T14:53:24.901Z,100973.28
2022-09-02T14:55:54.925Z,100974.41
2022-09-02T14:58:27.050Z,100973.44
2022-09-02T15:00:57.041Z,100975.13
2022-09-02T15:03:28.998Z,100978.78
2022-09-02T15:05:59.440Z,100969.88
2022-09-02T15:08:27.431Z,100969.09
2022-09-02T15:11:01.007Z,100964.03
2022-09-02T15:13:33.813Z,100974.31
2022-09-02T15:16:05.898Z,100968.41
2022-09-02T15:18:36.472Z,100976.25
2022-09-02T15:21:29.978Z,100975.97
2022-09-02T15:24:07.226Z,100969.06
2022-09-02T15:31:00.173Z,100955.72
2022-09-02T15:33:28.878Z,100950.56
2022-09-02T15:35:56.816Z,100954.25
2022-09-02T15:38:24.858Z,100955.44
2022-09-02T15:40:52.914Z,100944.28
2022-09-02T15:43:27.044Z,100953.91
2022-09-02T15:45:54.935Z,100939.72
2022-09-02T15:48:26.730Z,100943.19
2022-09-02T15:50:58.620Z,100935.31
2022-09-02T15:53:26.497Z,100930.34
2022-09-02T15:55:59.858Z,100929.53
2022-09-02T15:58:28.098Z,100916.38
2022-09-02T16:00:55.965Z,100935.47
2022-09-02T16:03:39.250Z,100937.50
2022-09-02T16:06:14.524Z,100929.19
2022-09-02T16:08:44.380Z,100934.97
2022-09-02T16:11:17.722Z,100916.84
2022-09-02T16:13:49.502Z,100925.28
2022-09-02T16:16:18.616Z,100927.59
2022-09-02T16:18:51.375Z,100919.66
2022-09-02T16:21:23.544Z,100909.09
2022-09-02T16:23:52.820Z,100898.66
2022-09-02T16:26:25.123Z,100905.06
2022-09-02T16:28:55.661Z,100907.56
2022-09-02T16:31:29.560Z,100904.75
2022-09-02T16:33:59.602Z,100903.63
2022-09-02T16:36:33.189Z,100899.16
2022-09-02T16:39:01.760Z,100895.38
2022-09-02T16:41:32.481Z,100897.88
2022-09-02T16:44:01.154Z,100890.75
2022-09-02T16:46:30.406Z,100896.59
2022-09-02T16:48:59.981Z,100897.97
2022-09-02T16:51:30.049Z,100900.22
2022-09-02T16:54:00.480Z,100891.28
2022-09-02T16:56:30.625Z,100885.78
2022-09-02T16:59:02.711Z,100871.28
2022-09-02T17:01:32.498Z,100878.88
2022-09-02T17:04:03.012Z,100887.44
2022-09-02T17:06:31.903Z,100878.13
2022-09-02T17:09:05.618Z,100881.47
2022-09-02T17:11:36.486Z,100892.53
2022-09-02T17:14:06.774Z,100885.22
2022-09-02T17:16:36.961Z,100892.00
2022-09-02T17:19:06.958Z,100876.00
2022-09-02T17:21:40.592Z,100891.50
2022-09-02T17:24:11.304Z,100893.84
2022-09-02T17:26:41.601Z,100891.81
2022-09-02T17:29:26.285Z,100896.00
2022-09-02T17:31:59.882Z,100898.22
2022-09-02T17:34:30.968Z,100895.31
2022-09-02T17:36:58.940Z,100894.94
2022-09-02T17:39:27.050Z,100891.97
2022-09-02T17:41:57.672Z,100903.63
2022-09-02T17:44:28.102Z,100900.88
2022-09-02T17:46:57.651Z,100900.59
2022-09-02T17:49:25.773Z,100900.16
2022-09-02T17:51:55.379Z,100890.72
2022-09-02T17:54:23.519Z,100911.44
2022-09-02T17:57:10.010Z,100908.56
2022-09-02T17:59:59.170Z,100905.63
2022-09-02T18:02:53.396Z,100912.94
2022-09-02T18:05:29.282Z,100917.53
2022-09-02T18:08:15.570Z,100918.22
2022-09-02T18:10:58.004Z,100912.38
2022-09-02T18:13:34.053Z,100926.84
2022-09-02T18:16:25.642Z,100925.41
2022-09-02T18:19:22.341Z,100923.47
2022-09-02T18:22:06.341Z,100886.16
2022-09-02T18:24:52.027Z,100922.88
2022-09-02T18:27:43.680Z,100916.59
2022-09-02T18:30:19.843Z,100937.75
2022-09-02T18:33:15.629Z,100924.91
2022-09-02T18:35:55.632Z,100944.66
2022-09-02T18:38:28.653Z,100938.97
2022-09-02T18:41:25.185Z,100944.69
2022-09-02T18:44:29.051Z,100944.97
2022-09-02T18:47:01.871Z,100940.47
2022-09-02T18:49:35.809Z,100950.69
2022-09-02T18:52:07.538Z,100943.44
2022-09-02T18:54:46.451Z,100962.09
2022-09-02T18:57:16.195Z,100957.50
2022-09-02T18:59:53.164Z,100953.75
2022-09-02T19:02:29.018Z,100946.00
2022-09-02T19:05:07.072Z,100958.94
2022-09-02T19:07:54.961Z,100959.31
2022-09-02T19:10:23.655Z,100965.22
2022-09-02T19:12:57.176Z,100967.25
2022-09-02T19:15:25.689Z,100978.16
2022-09-02T19:17:53.740Z,100976.38
2022-09-02T19:20:31.105Z,100977.94
2022-09-02T19:22:59.468Z,100973.22
2022-09-02T19:25:31.898Z,100972.91
2022-09-02T19:28:06.004Z,100982.94
2022-09-02T19:30:37.419Z,100984.41
2022-09-02T19:33:17.507Z,100986.66
2022-09-02T19:35:49.993Z,100980.88
2022-09-02T19:38:19.649Z,100979.13
2022-09-02T19:40:49.610Z,100982.25
2022-09-02T19:43:21.056Z,100993.03
2022-09-02T19:45:51.510Z,100990.25
2022-09-02T19:48:27.634Z,100993.97
2022-09-02T19:50:56.752Z,100999.75
2022-09-02T19:53:27.884Z,100996.88
2022-09-02T19:55:55.757Z,101000.00
2022-09-02T19:58:25.786Z,100992.94
2022-09-02T20:00:55.456Z,100982.56
2022-09-02T20:03:23.446Z,100994.41
2022-09-02T20:05:52.569Z,100992.75
2022-09-02T20:08:21.043Z,100990.13
2022-09-02T20:10:56.260Z,101002.50
2022-09-02T20:13:43.365Z,100997.78
2022-09-02T20:16:18.292Z,100992.81
2022-09-02T20:18:46.725Z,101004.88
2022-09-02T20:21:20.606Z,101006.34
2022-09-02T20:23:53.753Z,100991.44
2022-09-02T20:26:36.680Z,101001.28
2022-09-02T20:29:28.396Z,101008.72
2022-09-02T20:32:06.041Z,100989.56
2022-09-02T20:35:01.821Z,101011.38
2022-09-02T20:37:40.458Z,101021.47
2022-09-02T20:40:34.841Z,101013.50
2022-09-02T20:43:26.159Z,101017.50
2022-09-02T20:46:02.963Z,101018.16
2022-09-02T20:48:58.495Z,101016.94
2022-09-02T20:51:42.247Z,101021.59
2022-09-02T20:54:24.178Z,101023.94
2022-09-02T20:57:05.131Z,101030.69
2022-09-02T20:59:44.902Z,101015.63
2022-09-02T21:02:21.477Z,101027.03
2022-09-02T21:04:55.714Z,101022.59
2022-09-02T21:07:25.377Z,101017.94
2022-09-02T21:10:02.341Z,101022.03
2022-09-02T21:12:43.021Z,100985.81
2022-09-02T21:15:23.971Z,101008.66
2022-09-02T21:17:57.928Z,101010.31
2022-09-02T21:20:32.114Z,101011.72
2022-09-02T21:23:06.909Z,100992.91
2022-09-02T21:25:43.993Z,101005.28
2022-09-02T21:28:20.922Z,101006.97
2022-09-02T21:31:04.171Z,101011.16
2022-09-02T21:33:36.272Z,101010.81
2022-09-02T21:36:06.408Z,101007.94
2022-09-02T21:38:43.059Z,101018.56
2022-09-02T21:41:28.834Z,101017.22
2022-09-02T21:44:19.558Z,101010.78
2022-09-02T21:47:01.398Z,101005.25
2022-09-02T21:49:51.698Z,101008.34
2022-09-02T21:52:35.023Z,100989.94
2022-09-02T21:55:15.586Z,101013.50
2022-09-02T21:57:57.077Z,101007.41
2022-09-02T22:00:29.074Z,100997.03
2022-09-02T22:03:04.023Z,101007.19
2022-09-02T22:05:54.949Z,101001.00
2022-09-02T22:08:36.023Z,100998.63
2022-09-02T22:11:11.865Z,100999.19
2022-09-02T22:13:42.028Z,101001.59
2022-09-02T22:16:24.620Z,100996.16
2022-09-02T22:19:11.171Z,100987.31
2022-09-02T22:21:48.211Z,100986.97
2022-09-02T22:24:17.699Z,100992.81
2022-09-02T22:26:49.982Z,100992.81
2022-09-02T22:29:26.673Z,100988.13
2022-09-02T22:32:02.762Z,100989.88
2022-09-02T22:34:39.040Z,100994.63
2022-09-02T22:37:12.099Z,100994.50
2022-09-02T22:39:47.808Z,100990.09
2022-09-02T22:42:24.446Z,100959.84
2022-09-02T22:45:17.123Z,100989.59
2022-09-02T22:48:03.962Z,101002.03
2022-09-02T22:50:56.334Z,100992.56
2022-09-02T22:53:25.674Z,100989.13
2022-09-02T22:55:59.759Z,100975.22
2022-09-02T22:58:42.350Z,100982.56
2022-09-02T23:01:19.274Z,100973.09
2022-09-02T23:04:10.956Z,100965.72
2022-09-02T23:06:39.038Z,100977.91
2022-09-02T23:09:10.361Z,100971.06
2022-09-02T23:11:49.685Z,100972.59
2022-09-02T23:14:26.728Z,100970.59
2022-09-02T23:17:27.387Z,100978.31
2022-09-02T23:20:10.697Z,100970.59
2022-09-02T23:22:50.731Z,100980.53
2022-09-02T23:25:40.186Z,100972.75
2022-09-02T23:28:16.626Z,100974.06
2022-09-02T23:31:17.842Z,100968.75
2022-09-02T23:33:56.968Z,100969.28
2022-09-02T23:36:35.194Z,100960.56
2022-09-02T23:39:13.028Z,100961.19
2022-09-02T23:41:50.686Z,100961.81
2022-09-02T23:44:18.652Z,100961.81
2022-09-02T23:46:58.155Z,100948.94
2022-09-02T23:49:40.163Z,100957.03
2022-09-02T23:52:26.215Z,100956.94
2022-09-02T23:55:05.699Z,100950.84
2022-09-02T23:57:49.360Z,100956.56
